createdAt,value
2022-08-08T00:00:52.314Z,44.92
2022-08-08T00:02:59.130Z,45.16
2022-08-08T00:05:43.337Z,44.97
2022-08-08T00:08:20.051Z,45.21
2022-08-08T00:10:55.932Z,45.41
2022-08-08T00:14:15.646Z,45.52
2022-08-08T00:16:24.486Z,45.74
2022-08-08T00:18:57.007Z,45.79
2022-08-08T00:21:39.692Z,46.06
2022-08-08T00:24:16.151Z,45.81
2022-08-08T00:26:50.025Z,46.01
2022-08-08T00:29:45.723Z,46.00
2022-08-08T00:32:34.652Z,46.02
2022-08-08T00:35:29.837Z,45.88
2022-08-08T00:38:32.402Z,46.21
2022-08-08T00:41:55.592Z,46.51
2022-08-08T00:45:21.802Z,46.58
2022-08-08T00:48:29.837Z,46.72
2022-08-08T00:51:38.395Z,46.77
2022-08-08T00:55:16.738Z,46.91
2022-08-08T00:58:34.794Z,46.99
2022-08-08T01:01:15.904Z,47.44
2022-08-08T01:04:42.356Z,47.13
2022-08-08T01:07:55.963Z,47.21
2022-08-08T01:11:20.898Z,47.31
2022-08-08T01:14:19.218Z,47.63
2022-08-08T01:18:02.420Z,48.31
2022-08-08T01:20:52.219Z,48.47
2022-08-08T01:24:20.720Z,48.40
2022-08-08T01:27:24.135Z,48.49
2022-08-08T01:30:42.393Z,48.41
2022-08-08T01:33:54.051Z,48.47
2022-08-08T01:37:13.692Z,48.65
2022-08-08T01:40:04.015Z,49.01
2022-08-08T01:42:42.040Z,49.25
2022-08-08T01:45:37.497Z,49.22
2022-08-08T01:48:30.275Z,49.47
2022-08-08T01:52:29.471Z,49.50
2022-08-08T01:55:44.918Z,49.92
2022-08-08T01:58:12.667Z,49.81
2022-08-08T02:00:57.340Z,49.95
2022-08-08T02:03:57.325Z,50.22
2022-08-08T02:06:52.011Z,50.37
2022-08-08T02:10:02.454Z,50.38
2022-08-08T02:12:27.691Z,50.49
2022-08-08T02:15:04.225Z,50.58
2022-08-08T02:17:50.282Z,50.77
2022-08-08T02:21:00.878Z,50.64
2022-08-08T02:23:31.786Z,50.90
2022-08-08T02:26:10.173Z,51.05
2022-08-08T02:29:00.351Z,51.14
2022-08-08T02:31:58.625Z,51.26
2022-08-08T02:35:10.922Z,51.65
2022-08-08T02:38:30.176Z,51.74
2022-08-08T02:42:04.058Z,51.75
2022-08-08T02:45:18.859Z,51.80
2022-08-08T02:48:27.358Z,52.21
2022-08-08T02:51:30.482Z,52.09
2022-08-08T02:54:34.522Z,52.18
2022-08-08T02:58:02.888Z,52.61
2022-08-08T03:00:58.381Z,52.58
2022-08-08T03:05:04.547Z,52.48
2022-08-08T03:07:41.195Z,52.78
2022-08-08T03:11:05.888Z,53.26
2022-08-08T03:16:02.682Z,53.60
2022-08-08T03:17:16.097Z,53.42
2022-08-08T03:20:08.290Z,53.42
2022-08-08T03:22:47.379Z,53.72
2022-08-08T03:25:18.692Z,54.03
2022-08-08T03:27:58.476Z,54.07
2022-08-08T03:30:30.517Z,54.48
2022-08-08T03:33:56.724Z,54.41
2022-08-08T03:36:10.769Z,54.82
2022-08-08T03:38:58.135Z,54.81
2022-08-08T03:42:27.597Z,54.95
2022-08-08T03:44:34.050Z,54.99
2022-08-08T03:47:14.297Z,54.99
2022-08-08T03:49:59.994Z,55.16
2022-08-08T03:52:33.930Z,55.28
2022-08-08T03:55:20.239Z,55.43
2022-08-08T03:58:30.933Z,55.68
2022-08-08T04:01:01.486Z,55.60
2022-08-08T04:03:59.888Z,55.50
2022-08-08T04:06:29.210Z,55.50
2022-08-08T04:09:07.002Z,55.37
2022-08-08T04:11:58.473Z,55.52
2022-08-08T04:14:45.133Z,55.49
2022-08-08T04:17:22.549Z,55.93
2022-08-08T04:20:04.884Z,55.52
2022-08-08T04:22:35.185Z,55.76
2022-08-08T04:25:06.009Z,55.24
2022-08-08T04:28:01.677Z,55.35
2022-08-08T04:30:26.713Z,56.01
2022-08-08T04:32:55.971Z,55.69
2022-08-08T04:35:33.405Z,55.15
2022-08-08T04:38:09.847Z,55.24
2022-08-08T04:40:53.622Z,54.40
2022-08-08T04:43:32.046Z,53.95
2022-08-08T04:46:18.600Z,54.33
2022-08-08T04:48:49.129Z,54.60
2022-08-08T04:51:27.976Z,53.79
2022-08-08T04:54:38.420Z,53.03
2022-08-08T04:56:59.175Z,52.32
2022-08-08T04:59:29.867Z,51.94
2022-08-08T05:02:00.825Z,50.71
2022-08-08T05:04:30.179Z,49.83
2022-08-08T05:06:58.714Z,50.27
2022-08-08T05:09:28.331Z,49.56
2022-08-08T05:11:57.713Z,49.37
2022-08-08T05:14:30.968Z,49.41
2022-08-08T05:17:08.859Z,49.18
2022-08-08T05:20:10.417Z,49.31
2022-08-08T05:22:35.990Z,50.24
2022-08-08T05:25:05.821Z,49.88
2022-08-08T05:27:41.814Z,49.66
2022-08-08T05:30:16.573Z,49.70
2022-08-08T05:32:56.507Z,49.34
2022-08-08T05:35:27.539Z,49.02
2022-08-08T05:38:04.722Z,49.21
2022-08-08T05:40:58.098Z,49.79
2022-08-08T05:43:39.435Z,48.82
2022-08-08T05:46:24.456Z,47.71
2022-08-08T05:48:54.365Z,47.09
2022-08-08T05:51:26.732Z,47.49
2022-08-08T05:54:27.625Z,49.03
2022-08-08T05:56:48.355Z,48.05
2022-08-08T05:59:53.584Z,46.76
2022-08-08T06:02:43.724Z,45.46
2022-08-08T06:05:34.693Z,45.11
2022-08-08T06:08:09.922Z,44.52
2022-08-08T06:10:50.224Z,44.89
2022-08-08T06:13:22.545Z,44.69
2022-08-08T06:15:55.366Z,43.95
2022-08-08T06:18:37.726Z,43.78
2022-08-08T06:21:28.562Z,43.04
2022-08-08T06:24:03.561Z,42.44
2022-08-08T06:26:50.476Z,43.40
2022-08-08T06:29:56.791Z,43.21
2022-08-08T06:32:27.882Z,41.17
2022-08-08T06:36:04.159Z,41.01
2022-08-08T06:37:59.272Z,39.92
2022-08-08T06:40:36.792Z,41.82
2022-08-08T06:43:19.984Z,42.16
2022-08-08T06:46:00.411Z,40.98
2022-08-08T06:48:30.125Z,40.54
2022-08-08T06:51:07.387Z,40.42
2022-08-08T06:53:50.883Z,38.29
2022-08-08T06:56:26.462Z,37.54
2022-08-08T06:58:55.182Z,36.35
2022-08-08T07:02:17.390Z,36.85
2022-08-08T07:04:38.966Z,37.41
2022-08-08T07:07:12.325Z,37.90
2022-08-08T07:09:59.564Z,37.65
2022-08-08T07:12:41.384Z,35.91
2022-08-08T07:15:32.800Z,34.68
2022-08-08T07:18:35.853Z,36.50
2022-08-08T07:21:05.191Z,34.56
2022-08-08T07:24:01.549Z,35.53
2022-08-08T07:26:41.430Z,33.74
2022-08-08T07:29:20.224Z,33.45
2022-08-08T07:32:03.303Z,34.02
2022-08-08T07:34:32.394Z,32.78
2022-08-08T07:37:11.733Z,31.73
2022-08-08T07:39:45.592Z,31.74
2022-08-08T07:42:32.891Z,31.51
2022-08-08T07:45:03.712Z,31.13
2022-08-08T07:47:39.120Z,30.38
2022-08-08T07:50:12.058Z,29.44
2022-08-08T07:52:49.212Z,29.38
2022-08-08T07:55:28.751Z,28.66
2022-08-08T07:58:12.781Z,27.59
2022-08-08T08:00:45.601Z,28.29
2022-08-08T08:03:23.869Z,28.04
2022-08-08T08:06:02.150Z,27.95
2022-08-08T08:08:51.978Z,26.84
2022-08-08T08:11:38.047Z,26.92
2022-08-08T08:14:19.569Z,28.10
2022-08-08T08:16:50.829Z,27.16
2022-08-08T08:19:31.875Z,27.42
2022-08-08T08:22:15.089Z,29.24
2022-08-08T08:24:47.707Z,27.45
2022-08-08T08:27:22.198Z,26.88
2022-08-08T08:29:59.016Z,24.82
2022-08-08T08:32:35.605Z,24.44
2022-08-08T08:35:08.932Z,23.39
2022-08-08T08:37:59.153Z,23.25
2022-08-08T08:40:30.350Z,22.92
2022-08-08T08:43:02.860Z,22.59
2022-08-08T08:45:32.424Z,22.88
2022-08-08T08:48:04.350Z,23.60
2022-08-08T08:50:41.046Z,24.98
2022-08-08T08:53:27.586Z,26.04
2022-08-08T08:56:12.283Z,24.99
2022-08-08T08:58:50.367Z,24.55
2022-08-08T09:01:49.103Z,25.64
2022-08-08T09:04:30.207Z,27.05
2022-08-08T09:07:12.808Z,28.01
2022-08-08T09:09:47.737Z,28.33
2022-08-08T09:12:28.713Z,28.57
2022-08-08T09:15:01.122Z,30.87
2022-08-08T09:17:41.732Z,31.12
2022-08-08T09:21:56.924Z,31.14
2022-08-08T09:23:17.269Z,30.13
2022-08-08T09:25:54.611Z,29.55
2022-08-08T09:28:37.672Z,31.12
2022-08-08T09:31:16.997Z,30.81
2022-08-08T09:34:31.055Z,30.42
2022-08-08T09:37:10.246Z,31.53
2022-08-08T09:39:44.118Z,31.74
2022-08-08T09:42:22.131Z,29.58
2022-08-08T09:45:07.984Z,29.90
2022-08-08T09:48:02.969Z,30.04
2022-08-08T09:50:32.446Z,29.87
2022-08-08T09:53:23.506Z,30.53
2022-08-08T09:56:04.349Z,30.04
2022-08-08T09:58:40.376Z,29.63
2022-08-08T10:01:58.431Z,28.35
2022-08-08T10:04:04.931Z,29.07
2022-08-08T10:06:35.984Z,28.60
2022-08-08T10:09:08.575Z,27.93
2022-08-08T10:12:27.399Z,26.27
2022-08-08T10:14:38.423Z,26.30
2022-08-08T10:17:56.329Z,25.07
2022-08-08T10:20:04.232Z,23.60
2022-08-08T10:22:35.876Z,24.58
2022-08-08T10:25:15.698Z,26.19
2022-08-08T10:27:45.933Z,25.88
2022-08-08T10:30:57.433Z,24.82
2022-08-08T10:33:12.255Z,22.28
2022-08-08T10:36:08.191Z,20.37
2022-08-08T10:38:32.358Z,19.21
2022-08-08T10:41:05.079Z,18.16
2022-08-08T10:43:43.264Z,19.65
2022-08-08T10:49:07.211Z,18.16
2022-08-08T10:51:54.756Z,16.93
2022-08-08T10:54:26.969Z,17.70
2022-08-08T10:57:00.941Z,19.47
2022-08-08T10:59:39.816Z,19.50
2022-08-08T11:02:10.348Z,18.93
2022-08-08T11:04:53.663Z,21.99
2022-08-08T11:08:31.193Z,20.69
2022-08-08T11:10:28.668Z,19.79
2022-08-08T11:15:53.128Z,21.20
2022-08-08T11:18:31.130Z,22.51
2022-08-08T11:21:09.867Z,22.73
2022-08-08T11:23:42.499Z,22.71
2022-08-08T11:26:19.146Z,25.05
2022-08-08T11:28:50.246Z,24.09
2022-08-08T11:31:21.130Z,22.76
2022-08-08T11:34:01.648Z,19.27
2022-08-08T11:36:36.304Z,17.22
2022-08-08T11:39:05.867Z,17.05
2022-08-08T11:41:43.423Z,15.61
2022-08-08T11:44:14.907Z,14.02
2022-08-08T11:46:44.157Z,11.69
2022-08-08T11:49:14.658Z,14.15
2022-08-08T11:51:49.907Z,14.36
2022-08-08T11:54:33.819Z,16.37
2022-08-08T11:57:14.044Z,16.66
2022-08-08T12:00:00.819Z,18.62
2022-08-08T12:02:48.018Z,17.67
2022-08-08T12:05:22.548Z,15.92
2022-08-08T12:07:55.781Z,12.38
2022-08-08T12:10:27.225Z,11.80
2022-08-08T12:13:03.083Z,11.12
2022-08-08T12:15:40.101Z,11.35
2022-08-08T12:18:20.598Z,10.66
2022-08-08T12:20:50.924Z,10.77
2022-08-08T12:23:43.905Z,8.97
2022-08-08T12:26:27.332Z,8.20
2022-08-08T12:28:57.866Z,7.73
2022-08-08T12:31:39.142Z,7.24
2022-08-08T12:34:41.636Z,7.99
2022-08-08T12:37:12.475Z,13.71
2022-08-08T12:40:01.946Z,17.81
2022-08-08T12:42:33.173Z,13.50
2022-08-08T12:45:20.027Z,11.57
2022-08-08T12:48:09.550Z,11.49
2022-08-08T12:50:48.056Z,9.86
2022-08-08T12:53:21.143Z,9.65
2022-08-08T12:56:17.591Z,8.96
2022-08-08T12:58:54.425Z,7.95
2022-08-08T13:01:36.388Z,9.12
2022-08-08T13:04:18.587Z,12.60
2022-08-08T13:07:01.283Z,10.98
2022-08-08T13:09:33.720Z,10.35
2022-08-08T13:12:30.586Z,12.18
2022-08-08T13:15:02.344Z,12.10
2022-08-08T13:18:08.262Z,9.79
2022-08-08T13:20:23.839Z,7.73
2022-08-08T13:23:30.832Z,9.62
2022-08-08T13:25:49.998Z,12.19
2022-08-08T13:28:32.130Z,14.24
2022-08-08T13:31:01.941Z,11.97
2022-08-08T13:33:42.433Z,10.29
2022-08-08T13:36:11.751Z,8.66
2022-08-08T13:38:40.133Z,7.85
2022-08-08T13:41:15.887Z,8.25
2022-08-08T13:43:50.861Z,10.73
2022-08-08T13:46:26.846Z,11.52
2022-08-08T13:49:12.344Z,15.79
2022-08-08T13:52:04.713Z,16.52
2022-08-08T13:54:35.753Z,13.76
2022-08-08T13:57:13.845Z,14.56
2022-08-08T13:59:48.490Z,14.82
2022-08-08T14:02:20.458Z,17.56
2022-08-08T14:04:57.716Z,15.28
2022-08-08T14:07:42.434Z,14.82
2022-08-08T14:10:17.194Z,13.87
2022-08-08T14:12:47.503Z,13.33
2022-08-08T14:15:31.496Z,12.11
2022-08-08T14:18:36.188Z,10.32
2022-08-08T14:21:08.244Z,10.56
2022-08-08T14:24:06.761Z,9.34
2022-08-08T14:26:34.013Z,10.90
2022-08-08T14:29:05.764Z,11.96
2022-08-08T14:32:07.132Z,12.40
2022-08-08T14:34:27.800Z,12.59
2022-08-08T14:36:57.813Z,12.43
2022-08-08T14:39:48.247Z,13.05
2022-08-08T14:42:16.721Z,11.20
2022-08-08T14:44:55.577Z,13.48
2022-08-08T14:47:25.228Z,13.54
2022-08-08T14:50:11.407Z,14.39
2022-08-08T14:52:54.276Z,12.94
2022-08-08T14:55:35.539Z,13.73
2022-08-08T14:58:11.965Z,13.66
2022-08-08T15:00:45.132Z,13.47
2022-08-08T15:03:17.529Z,12.72
2022-08-08T15:05:53.937Z,13.28
2022-08-08T15:08:35.513Z,14.27
2022-08-08T15:11:08.133Z,14.51
2022-08-08T15:13:40.472Z,15.42
2022-08-08T15:16:11.868Z,16.22
2022-08-08T15:18:51.256Z,13.28
2022-08-08T15:21:21.110Z,11.92
2022-08-08T15:23:51.363Z,12.65
2022-08-08T15:26:21.480Z,13.23
2022-08-08T15:28:56.326Z,12.81
2022-08-08T15:31:56.270Z,14.22
2022-08-08T15:34:29.680Z,16.56
2022-08-08T15:37:03.038Z,17.67
2022-08-08T15:39:38.228Z,16.53
2022-08-08T15:42:10.220Z,16.08
2022-08-08T15:44:39.391Z,13.57
2022-08-08T15:47:15.413Z,12.19
2022-08-08T15:49:47.711Z,14.21
2022-08-08T15:52:17.538Z,17.42
2022-08-08T15:54:47.935Z,17.68
2022-08-08T15:57:20.126Z,17.30
2022-08-08T16:00:05.563Z,16.61
2022-08-08T16:02:50.722Z,17.20
2022-08-08T16:05:23.582Z,15.34
2022-08-08T16:07:54.111Z,15.08
2022-08-08T16:13:07.773Z,17.80
2022-08-08T16:13:30.161Z,17.48
2022-08-08T16:16:09.532Z,18.14
2022-08-08T16:18:57.212Z,17.38
2022-08-08T16:21:30.817Z,18.96
2022-08-08T16:24:02.417Z,19.39
2022-08-08T16:26:34.703Z,18.57
2022-08-08T16:29:08.247Z,18.38
2022-08-08T16:31:41.014Z,17.13
2022-08-08T16:34:10.112Z,17.15
2022-08-08T16:36:41.172Z,16.96
2022-08-08T16:39:28.471Z,16.99
2022-08-08T16:42:01.362Z,16.57
2022-08-08T16:44:34.372Z,17.37
2022-08-08T16:47:21.750Z,16.71
2022-08-08T16:50:01.313Z,16.63
2022-08-08T16:55:18.387Z,18.02
2022-08-08T16:55:52.304Z,18.73
2022-08-08T16:58:16.192Z,19.08
2022-08-08T17:00:49.123Z,18.06
2022-08-08T17:03:25.464Z,17.11
2022-08-08T17:06:35.462Z,17.61
2022-08-08T17:08:58.374Z,17.94
2022-08-08T17:11:28.397Z,17.31
2022-08-08T17:14:19.178Z,18.28
2022-08-08T17:16:51.784Z,20.32
2022-08-08T17:19:27.429Z,20.44
2022-08-08T17:21:57.924Z,19.51
2022-08-08T17:24:32.367Z,20.28
2022-08-08T17:27:02.880Z,20.98
2022-08-08T17:29:36.263Z,20.49
2022-08-08T17:32:07.933Z,20.94
2022-08-08T17:35:27.759Z,21.31
2022-08-08T17:37:27.759Z,21.00
2022-08-08T17:40:10.924Z,20.75
2022-08-08T17:42:47.335Z,20.69
2022-08-08T17:45:22.490Z,21.45
2022-08-08T17:47:53.796Z,21.33
2022-08-08T17:50:23.708Z,21.07
2022-08-08T17:52:52.772Z,21.19
2022-08-08T17:56:06.677Z,20.96
2022-08-08T17:58:12.002Z,20.96
2022-08-08T18:00:41.615Z,21.07
2022-08-08T18:03:13.705Z,21.67
2022-08-08T18:05:48.223Z,22.07
2022-08-08T18:08:36.895Z,22.54
2022-08-08T18:11:14.557Z,22.53
2022-08-08T18:13:46.311Z,23.31
2022-08-08T18:16:16.991Z,23.48
2022-08-08T18:18:52.829Z,24.12
2022-08-08T18:22:00.548Z,24.56
2022-08-08T18:24:19.144Z,24.89
2022-08-08T18:26:55.915Z,25.41
2022-08-08T18:29:32.938Z,25.67
2022-08-08T18:32:04.709Z,25.82
2022-08-08T18:34:34.257Z,25.93
2022-08-08T18:37:08.057Z,26.39
2022-08-08T18:39:38.222Z,26.55
2022-08-08T18:42:16.547Z,26.97
2022-08-08T18:44:54.750Z,27.31
2022-08-08T18:47:28.029Z,27.66
2022-08-08T18:50:03.033Z,28.06
2022-08-08T18:52:34.571Z,28.32
2022-08-08T18:55:09.606Z,28.56
2022-08-08T18:57:45.436Z,28.96
2022-08-08T19:00:20.203Z,29.50
2022-08-08T19:02:55.825Z,29.38
2022-08-08T19:05:30.685Z,29.60
2022-08-08T19:08:09.848Z,29.57
2022-08-08T19:10:41.194Z,29.85
2022-08-08T19:13:20.882Z,29.75
2022-08-08T19:15:51.986Z,30.31
2022-08-08T19:18:32.495Z,30.29
2022-08-08T19:21:29.333Z,30.53
2022-08-08T19:24:00.707Z,30.84
2022-08-08T19:26:31.239Z,31.09
2022-08-08T19:29:01.785Z,31.34
2022-08-08T19:31:31.533Z,31.26
2022-08-08T19:34:30.376Z,31.61
2022-08-08T19:36:58.715Z,31.74
2022-08-08T19:39:35.009Z,32.07
2022-08-08T19:42:06.952Z,32.25
2022-08-08T19:44:42.914Z,32.16
2022-08-08T19:47:14.864Z,32.53
2022-08-08T19:50:00.008Z,32.59
2022-08-08T19:52:34.838Z,32.83
2022-08-08T19:55:09.429Z,32.85
2022-08-08T19:57:41.211Z,32.61
2022-08-08T20:00:30.244Z,33.11
2022-08-08T20:03:00.874Z,33.18
2022-08-08T20:06:15.522Z,33.30
2022-08-08T20:08:29.377Z,33.55
2022-08-08T20:11:01.078Z,33.65
2022-08-08T20:14:32.141Z,33.82
2022-08-08T20:16:21.103Z,33.91
2022-08-08T20:18:53.925Z,34.05
2022-08-08T20:21:25.319Z,33.99
2022-08-08T20:23:57.891Z,34.02
2022-08-08T20:26:33.768Z,34.35
2022-08-08T20:29:03.161Z,34.50
2022-08-08T20:32:07.661Z,34.63
2022-08-08T20:34:30.845Z,34.88
2022-08-08T20:37:02.442Z,34.81
2022-08-08T20:39:39.400Z,34.78
2022-08-08T20:42:23.672Z,34.84
2022-08-08T20:44:57.965Z,35.16
2022-08-08T20:47:35.918Z,35.35
2022-08-08T20:50:10.086Z,35.52
2022-08-08T20:52:39.980Z,35.68
2022-08-08T20:55:16.288Z,35.63
2022-08-08T20:57:51.305Z,35.73
2022-08-08T21:00:19.939Z,36.08
2022-08-08T21:02:52.926Z,36.03
2022-08-08T21:05:21.645Z,36.18
2022-08-08T21:08:37.082Z,36.32
2022-08-08T21:10:41.471Z,36.29
2022-08-08T21:13:10.730Z,36.48
2022-08-08T21:16:06.088Z,36.58
2022-08-08T21:18:28.933Z,36.87
2022-08-08T21:21:00.572Z,36.65
2022-08-08T21:24:01.858Z,36.87
2022-08-08T21:26:21.067Z,37.18
2022-08-08T21:29:00.950Z,37.27
2022-08-08T21:31:57.834Z,37.63
2022-08-08T21:34:21.425Z,37.57
2022-08-08T21:36:53.243Z,37.68
2022-08-08T21:39:24.091Z,37.70
2022-08-08T21:42:10.878Z,38.00
2022-08-08T21:44:59.049Z,38.00
2022-08-08T21:48:13.022Z,38.51
2022-08-08T21:50:19.678Z,38.69
2022-08-08T21:54:36.544Z,38.90
2022-08-08T21:56:24.595Z,38.93
2022-08-08T21:58:37.721Z,39.08
2022-08-08T22:01:06.973Z,39.05
2022-08-08T22:03:56.762Z,38.89
2022-08-08T22:06:37.951Z,38.99
2022-08-08T22:09:09.700Z,39.23
2022-08-08T22:11:51.135Z,39.12
2022-08-08T22:14:28.918Z,39.34
2022-08-08T22:17:01.080Z,39.27
2022-08-08T22:20:12.822Z,39.54
2022-08-08T22:22:20.673Z,39.81
2022-08-08T22:24:56.776Z,39.92
2022-08-08T22:27:38.773Z,40.10
2022-08-08T22:30:29.483Z,40.23
2022-08-08T22:32:58.853Z,40.29
2022-08-08T22:36:05.724Z,40.44
2022-08-08T22:38:17.915Z,40.71
2022-08-08T22:40:49.021Z,40.86
2022-08-08T22:43:17.730Z,41.04
2022-08-08T22:45:52.642Z,41.10
2022-08-08T22:48:23.092Z,41.25
2022-08-08T22:50:54.289Z,41.64
2022-08-08T22:54:32.898Z,41.54
2022-08-08T22:56:12.764Z,41.79
2022-08-08T22:58:43.114Z,41.78
2022-08-08T23:02:00.624Z,41.84
2022-08-08T23:04:07.472Z,42.02
2022-08-08T23:06:40.526Z,42.08
2022-08-08T23:09:13.783Z,42.12
2022-08-08T23:12:28.003Z,42.37
2022-08-08T23:14:32.969Z,42.53
2022-08-08T23:17:01.497Z,42.87
2022-08-08T23:19:32.687Z,43.05
2022-08-08T23:22:04.479Z,43.12
2022-08-08T23:24:36.731Z,43.50
2022-08-08T23:27:11.450Z,43.63
2022-08-08T23:29:59.399Z,43.64
2022-08-08T23:32:27.621Z,44.09
2022-08-08T23:34:58.968Z,44.12
2022-08-08T23:37:54.163Z,44.32
2022-08-08T23:40:22.080Z,44.65
2022-08-08T23:42:51.455Z,44.65
2022-08-08T23:49:00.273Z,45.16
2022-08-08T23:49:02.235Z,45.27
2022-08-08T23:50:58.252Z,45.44
2022-08-08T23:53:55.976Z,45.37
2022-08-08T23:56:24.085Z,45.56
2022-08-08T23:59:02.344Z,45.75
